Terminal Aerodrome Forecast
Issued by NWS Mobile, AL

Home | Current Version | Previous Version | Text Only | Print | Product List | Glossary On
Versions: 1 2 3 4 5 6 7 8 9 10 11 12 13
000
FTUS44 KMOB 270240 AAA
TAFPNS
TAF AMD
KPNS 270240Z 2703/2724 14016G22KT P6SM VCSH SCT010 BKN030
     FM271200 19016G22KT 5SM BR OVC010
     FM271500 VRB15KT 3SM TSRA BKN007CB
     FM271800 20015G22KT P6SM OVC015=

USA.gov is the U.S. government's official web portal to all federal, state and local government web resources and services.